sensor_id;sensor_type;location;lat;lon;timestamp;pressure;altitude;pressure_sealevel;temperature;humidity
57900;BME280;60605;53.716;19.940;2024-02-23T00:18:26;98041.98;;;8.25;100.00
57900;BME280;60605;53.716;19.940;2024-02-23T00:23:29;98033.32;;;8.23;100.00
57900;BME280;60605;53.716;19.940;2024-02-23T00:28:31;98025.82;;;8.23;100.00
57900;BME280;60605;53.716;19.940;2024-02-23T00:33:37;98017.13;;;8.23;100.00
57900;BME280;60605;53.716;19.940;2024-02-23T00:38:40;98011.50;;;8.24;100.00
57900;BME280;60605;53.716;19.940;2024-02-23T00:43:42;98003.20;;;8.27;100.00
57900;BME280;60605;53.716;19.940;2024-02-23T00:48:44;97989.84;;;8.29;100.00
57900;BME280;60605;53.716;19.940;2024-02-23T00:53:47;97989.36;;;8.30;100.00
57900;BME280;60605;53.716;19.940;2024-02-23T00:58:50;97989.61;;;8.31;100.00
57900;BME280;60605;53.716;19.940;2024-02-23T01:03:52;97983.30;;;8.32;100.00
57900;BME280;60605;53.716;19.940;2024-02-23T01:08:54;97982.55;;;8.31;100.00
57900;BME280;60605;53.716;19.940;2024-02-23T01:13:56;97985.57;;;8.29;100.00
57900;BME280;60605;53.716;19.940;2024-02-23T01:18:58;97978.40;;;8.30;100.00
57900;BME280;60605;53.716;19.940;2024-02-23T01:24:01;97975.93;;;8.30;100.00
57900;BME280;60605;53.716;19.940;2024-02-23T01:29:04;97976.27;;;8.31;100.00
57900;BME280;60605;53.716;19.940;2024-02-23T01:34:06;97975.95;;;8.34;100.00
57900;BME280;60605;53.716;19.940;2024-02-23T01:39:08;97975.83;;;8.33;100.00
57900;BME280;60605;53.716;19.940;2024-02-23T01:44:11;97967.69;;;8.32;100.00
57900;BME280;60605;53.716;19.940;2024-02-23T01:49:13;97960.45;;;8.29;100.00
57900;BME280;60605;53.716;19.940;2024-02-23T01:54:16;97958.29;;;8.24;100.00
57900;BME280;60605;53.716;19.940;2024-02-23T01:59:19;97954.80;;;8.24;100.00
57900;BME280;60605;53.716;19.940;2024-02-23T02:04:22;97954.15;;;8.25;100.00
57900;BME280;60605;53.716;19.940;2024-02-23T02:09:25;97958.73;;;8.25;100.00
57900;BME280;60605;53.716;19.940;2024-02-23T02:14:29;97956.61;;;8.26;100.00
57900;BME280;60605;53.716;19.940;2024-02-23T02:19:33;97953.20;;;8.29;100.00
57900;BME280;60605;53.716;19.940;2024-02-23T02:24:35;97948.69;;;8.35;100.00
57900;BME280;60605;53.716;19.940;2024-02-23T02:29:38;97948.14;;;8.41;100.00
57900;BME280;60605;53.716;19.940;2024-02-23T02:34:40;97947.79;;;8.42;100.00
57900;BME280;60605;53.716;19.940;2024-02-23T02:39:42;97950.53;;;8.42;100.00
57900;BME280;60605;53.716;19.940;2024-02-23T02:44:44;97950.96;;;8.40;100.00
57900;BME280;60605;53.716;19.940;2024-02-23T02:49:46;97953.73;;;8.38;100.00
57900;BME280;60605;53.716;19.940;2024-02-23T02:54:49;97955.17;;;8.36;100.00
57900;BME280;60605;53.716;19.940;2024-02-23T02:59:52;97952.38;;;8.35;100.00
57900;BME280;60605;53.716;19.940;2024-02-23T03:04:54;97952.52;;;8.33;100.00
57900;BME280;60605;53.716;19.940;2024-02-23T03:09:57;97955.15;;;8.34;100.00
57900;BME280;60605;53.716;19.940;2024-02-23T03:15:00;97958.91;;;8.36;100.00
57900;BME280;60605;53.716;19.940;2024-02-23T03:20:04;97957.38;;;8.41;100.00
57900;BME280;60605;53.716;19.940;2024-02-23T03:25:08;97957.78;;;8.46;100.00
57900;BME280;60605;53.716;19.940;2024-02-23T03:30:11;97956.33;;;8.49;100.00
57900;BME280;60605;53.716;19.940;2024-02-23T03:35:13;97956.35;;;8.54;100.00
57900;BME280;60605;53.716;19.940;2024-02-23T03:40:15;97961.75;;;8.58;100.00
57900;BME280;60605;53.716;19.940;2024-02-23T03:45:19;97968.23;;;8.57;100.00
57900;BME280;60605;53.716;19.940;2024-02-23T03:50:21;97967.80;;;8.54;100.00
57900;BME280;60605;53.716;19.940;2024-02-23T03:55:23;97962.95;;;8.50;100.00
57900;BME280;60605;53.716;19.940;2024-02-23T04:00:25;97968.77;;;8.46;100.00
57900;BME280;60605;53.716;19.940;2024-02-23T04:05:28;97969.23;;;8.41;100.00
57900;BME280;60605;53.716;19.940;2024-02-23T04:10:30;97966.98;;;8.35;100.00
57900;BME280;60605;53.716;19.940;2024-02-23T04:15:32;97967.70;;;8.27;100.00
57900;BME280;60605;53.716;19.940;2024-02-23T04:20:34;97973.45;;;8.21;100.00
57900;BME280;60605;53.716;19.940;2024-02-23T04:25:36;97983.54;;;8.16;100.00
57900;BME280;60605;53.716;19.940;2024-02-23T04:30:39;97994.15;;;8.12;100.00
57900;BME280;60605;53.716;19.940;2024-02-23T04:35:41;97996.52;;;8.11;100.00
57900;BME280;60605;53.716;19.940;2024-02-23T04:40:43;97991.48;;;8.11;100.00
57900;BME280;60605;53.716;19.940;2024-02-23T04:45:45;97989.31;;;8.12;100.00
57900;BME280;60605;53.716;19.940;2024-02-23T04:50:47;97980.50;;;8.16;100.00
57900;BME280;60605;53.716;19.940;2024-02-23T04:55:49;97990.80;;;8.19;100.00
57900;BME280;60605;53.716;19.940;2024-02-23T05:00:51;97997.09;;;8.20;100.00
57900;BME280;60605;53.716;19.940;2024-02-23T05:05:53;98005.23;;;8.22;100.00
57900;BME280;60605;53.716;19.940;2024-02-23T05:10:56;98010.69;;;8.22;100.00
57900;BME280;60605;53.716;19.940;2024-02-23T05:15:59;98016.66;;;8.21;100.00
57900;BME280;60605;53.716;19.940;2024-02-23T05:21:01;98017.27;;;8.19;100.00
57900;BME280;60605;53.716;19.940;2024-02-23T05:26:03;98019.70;;;8.17;100.00
57900;BME280;60605;53.716;19.940;2024-02-23T05:31:12;98028.02;;;8.16;100.00
57900;BME280;60605;53.716;19.940;2024-02-23T05:36:14;98036.27;;;8.17;100.00
57900;BME280;60605;53.716;19.940;2024-02-23T05:41:17;98038.00;;;8.17;100.00
57900;BME280;60605;53.716;19.940;2024-02-23T05:46:19;98043.14;;;8.18;100.00
57900;BME280;60605;53.716;19.940;2024-02-23T05:51:23;98048.66;;;8.23;100.00
57900;BME280;60605;53.716;19.940;2024-02-23T05:56:25;98056.37;;;8.26;100.00
57900;BME280;60605;53.716;19.940;2024-02-23T06:01:27;98066.26;;;8.30;100.00
57900;BME280;60605;53.716;19.940;2024-02-23T06:06:29;98067.69;;;8.33;100.00
57900;BME280;60605;53.716;19.940;2024-02-23T06:11:33;98074.93;;;8.36;100.00
57900;BME280;60605;53.716;19.940;2024-02-23T06:16:35;98081.46;;;8.40;100.00
57900;BME280;60605;53.716;19.940;2024-02-23T06:21:37;98084.66;;;8.44;100.00
57900;BME280;60605;53.716;19.940;2024-02-23T06:26:39;98091.18;;;8.49;100.00
57900;BME280;60605;53.716;19.940;2024-02-23T06:31:41;98103.77;;;8.54;100.00
57900;BME280;60605;53.716;19.940;2024-02-23T06:36:43;98108.80;;;8.57;100.00
57900;BME280;60605;53.716;19.940;2024-02-23T06:41:45;98113.40;;;8.62;100.00
57900;BME280;60605;53.716;19.940;2024-02-23T06:46:47;98122.48;;;8.67;100.00
57900;BME280;60605;53.716;19.940;2024-02-23T06:51:49;98130.46;;;8.73;100.00
57900;BME280;60605;53.716;19.940;2024-02-23T06:56:51;98141.00;;;8.80;100.00
57900;BME280;60605;53.716;19.940;2024-02-23T07:01:54;98153.42;;;8.88;100.00
57900;BME280;60605;53.716;19.940;2024-02-23T07:06:57;98156.50;;;8.93;100.00
57900;BME280;60605;53.716;19.940;2024-02-23T07:11:59;98164.13;;;8.97;100.00
57900;BME280;60605;53.716;19.940;2024-02-23T07:17:01;98172.70;;;9.00;100.00
57900;BME280;60605;53.716;19.940;2024-02-23T07:22:03;98181.55;;;9.04;100.00
57900;BME280;60605;53.716;19.940;2024-02-23T07:27:05;98192.84;;;9.06;100.00
57900;BME280;60605;53.716;19.940;2024-02-23T07:32:07;98199.33;;;9.10;100.00
57900;BME280;60605;53.716;19.940;2024-02-23T07:37:10;98207.15;;;9.14;100.00
57900;BME280;60605;53.716;19.940;2024-02-23T07:42:12;98211.02;;;9.18;100.00
57900;BME280;60605;53.716;19.940;2024-02-23T07:47:16;98216.17;;;9.25;100.00
57900;BME280;60605;53.716;19.940;2024-02-23T07:52:19;98224.26;;;9.36;100.00
57900;BME280;60605;53.716;19.940;2024-02-23T07:57:21;98229.03;;;9.48;100.00
57900;BME280;60605;53.716;19.940;2024-02-23T08:02:25;98236.61;;;9.61;100.00
57900;BME280;60605;53.716;19.940;2024-02-23T08:07:28;98247.00;;;9.72;100.00
57900;BME280;60605;53.716;19.940;2024-02-23T08:12:32;98255.14;;;9.84;100.00
57900;BME280;60605;53.716;19.940;2024-02-23T08:17:35;98262.96;;;9.98;100.00
57900;BME280;60605;53.716;19.940;2024-02-23T08:22:37;98274.87;;;10.14;100.00
57900;BME280;60605;53.716;19.940;2024-02-23T08:27:40;98282.10;;;10.27;100.00
57900;BME280;60605;53.716;19.940;2024-02-23T08:32:42;98286.85;;;10.38;100.00
57900;BME280;60605;53.716;19.940;2024-02-23T08:37:45;98301.72;;;10.49;100.00
57900;BME280;60605;53.716;19.940;2024-02-23T08:42:47;98308.73;;;10.60;100.00
57900;BME280;60605;53.716;19.940;2024-02-23T08:47:49;98317.54;;;10.68;100.00
57900;BME280;60605;53.716;19.940;2024-02-23T08:52:51;98331.45;;;10.76;100.00
57900;BME280;60605;53.716;19.940;2024-02-23T08:57:53;98345.59;;;10.82;100.00
57900;BME280;60605;53.716;19.940;2024-02-23T09:02:55;98354.23;;;10.87;100.00
57900;BME280;60605;53.716;19.940;2024-02-23T09:07:57;98361.29;;;10.90;100.00
57900;BME280;60605;53.716;19.940;2024-02-23T09:12:59;98365.86;;;10.92;100.00
57900;BME280;60605;53.716;19.940;2024-02-23T09:18:01;98365.98;;;10.95;100.00
57900;BME280;60605;53.716;19.940;2024-02-23T09:23:04;98373.96;;;10.97;100.00
57900;BME280;60605;53.716;19.940;2024-02-23T09:28:06;98382.27;;;11.00;100.00
57900;BME280;60605;53.716;19.940;2024-02-23T09:33:08;98391.62;;;11.01;100.00
57900;BME280;60605;53.716;19.940;2024-02-23T09:38:10;98402.76;;;11.04;100.00
57900;BME280;60605;53.716;19.940;2024-02-23T09:43:13;98409.73;;;11.07;100.00
57900;BME280;60605;53.716;19.940;2024-02-23T09:48:18;98419.64;;;11.11;100.00
57900;BME280;60605;53.716;19.940;2024-02-23T09:53:21;98431.59;;;11.18;100.00
57900;BME280;60605;53.716;19.940;2024-02-23T09:58:24;98445.00;;;11.31;100.00
57900;BME280;60605;53.716;19.940;2024-02-23T10:03:29;98456.05;;;11.46;100.00
57900;BME280;60605;53.716;19.940;2024-02-23T10:08:34;98465.91;;;11.59;100.00
57900;BME280;60605;53.716;19.940;2024-02-23T10:13:36;98475.08;;;11.72;100.00
57900;BME280;60605;53.716;19.940;2024-02-23T10:18:38;98478.69;;;11.84;100.00
57900;BME280;60605;53.716;19.940;2024-02-23T10:23:41;98480.93;;;11.89;100.00
57900;BME280;60605;53.716;19.940;2024-02-23T10:28:45;98493.08;;;11.90;100.00
57900;BME280;60605;53.716;19.940;2024-02-23T10:33:50;98502.45;;;11.90;100.00
57900;BME280;60605;53.716;19.940;2024-02-23T10:38:56;98512.48;;;11.93;100.00
57900;BME280;60605;53.716;19.940;2024-02-23T10:44:01;98518.52;;;11.96;100.00
57900;BME280;60605;53.716;19.940;2024-02-23T10:49:06;98531.46;;;12.07;100.00
57900;BME280;60605;53.716;19.940;2024-02-23T10:54:11;98546.88;;;12.16;100.00
57900;BME280;60605;53.716;19.940;2024-02-23T10:59:14;98564.77;;;12.22;100.00
57900;BME280;60605;53.716;19.940;2024-02-23T11:04:21;98575.56;;;12.24;100.00
57900;BME280;60605;53.716;19.940;2024-02-23T11:09:24;98581.50;;;12.24;99.61
57900;BME280;60605;53.716;19.940;2024-02-23T11:14:34;98590.41;;;12.21;97.81
57900;BME280;60605;53.716;19.940;2024-02-23T11:19:39;98596.19;;;12.15;96.64
57900;BME280;60605;53.716;19.940;2024-02-23T11:24:44;98603.83;;;12.12;95.96
57900;BME280;60605;53.716;19.940;2024-02-23T11:29:47;98613.69;;;12.09;95.24
57900;BME280;60605;53.716;19.940;2024-02-23T11:34:55;98616.89;;;11.99;92.22
57900;BME280;60605;53.716;19.940;2024-02-23T11:40:00;98623.80;;;11.93;91.02
57900;BME280;60605;53.716;19.940;2024-02-23T11:45:03;98641.42;;;12.03;90.91
57900;BME280;60605;53.716;19.940;2024-02-23T11:50:11;98652.67;;;12.19;90.23
57900;BME280;60605;53.716;19.940;2024-02-23T11:55:18;98656.84;;;12.32;88.55
57900;BME280;60605;53.716;19.940;2024-02-23T12:00:24;98663.67;;;12.38;86.06
57900;BME280;60605;53.716;19.940;2024-02-23T12:05:26;98675.26;;;12.42;83.80
57900;BME280;60605;53.716;19.940;2024-02-23T12:10:29;98683.30;;;12.42;82.98
57900;BME280;60605;53.716;19.940;2024-02-23T12:15:31;98686.73;;;12.38;82.79
57900;BME280;60605;53.716;19.940;2024-02-23T12:20:33;98693.45;;;12.31;82.48
57900;BME280;60605;53.716;19.940;2024-02-23T12:25:36;98695.45;;;12.17;81.48
57900;BME280;60605;53.716;19.940;2024-02-23T12:30:41;98700.17;;;11.98;79.82
57900;BME280;60605;53.716;19.940;2024-02-23T12:35:44;98714.95;;;11.80;79.19
57900;BME280;60605;53.716;19.940;2024-02-23T12:40:46;98715.64;;;11.65;79.32
57900;BME280;60605;53.716;19.940;2024-02-23T12:45:48;98720.02;;;11.58;80.46
57900;BME280;60605;53.716;19.940;2024-02-23T12:50:51;98728.16;;;11.54;81.10
57900;BME280;60605;53.716;19.940;2024-02-23T12:55:53;98733.48;;;11.52;81.19
57900;BME280;60605;53.716;19.940;2024-02-23T13:00:56;98737.30;;;11.46;81.18
57900;BME280;60605;53.716;19.940;2024-02-23T13:05:59;98744.95;;;11.38;81.20
57900;BME280;60605;53.716;19.940;2024-02-23T13:11:01;98743.65;;;11.28;81.10
57900;BME280;60605;53.716;19.940;2024-02-23T13:16:04;98746.36;;;11.22;81.93
57900;BME280;60605;53.716;19.940;2024-02-23T13:21:06;98753.33;;;11.16;82.00
57900;BME280;60605;53.716;19.940;2024-02-23T13:26:08;98760.02;;;11.08;82.49
57900;BME280;60605;53.716;19.940;2024-02-23T13:31:15;98765.52;;;11.01;83.23
57900;BME280;60605;53.716;19.940;2024-02-23T13:36:18;98769.29;;;10.96;83.37
57900;BME280;60605;53.716;19.940;2024-02-23T13:41:22;98776.30;;;10.91;83.57
57900;BME280;60605;53.716;19.940;2024-02-23T13:46:24;98777.31;;;10.89;83.70
57900;BME280;60605;53.716;19.940;2024-02-23T13:51:26;98782.19;;;10.90;83.89
57900;BME280;60605;53.716;19.940;2024-02-23T13:56:29;98791.72;;;10.88;83.32
57900;BME280;60605;53.716;19.940;2024-02-23T14:01:31;98803.95;;;10.86;83.14
57900;BME280;60605;53.716;19.940;2024-02-23T14:06:33;98821.31;;;10.83;83.28
57900;BME280;60605;53.716;19.940;2024-02-23T14:11:35;98833.38;;;10.79;83.90
57900;BME280;60605;53.716;19.940;2024-02-23T14:16:37;98844.76;;;10.75;84.44
57900;BME280;60605;53.716;19.940;2024-02-23T14:21:40;98847.45;;;10.71;84.91
57900;BME280;60605;53.716;19.940;2024-02-23T14:26:42;98860.42;;;10.68;84.71
57900;BME280;60605;53.716;19.940;2024-02-23T14:31:44;98873.50;;;10.74;84.91
57900;BME280;60605;53.716;19.940;2024-02-23T14:36:46;98879.91;;;10.83;84.91
57900;BME280;60605;53.716;19.940;2024-02-23T14:41:49;98884.73;;;10.85;84.30
57900;BME280;60605;53.716;19.940;2024-02-23T14:46:52;98893.23;;;10.83;84.23
57900;BME280;60605;53.716;19.940;2024-02-23T14:51:54;98902.38;;;10.79;84.48
57900;BME280;60605;53.716;19.940;2024-02-23T14:56:56;98903.23;;;10.69;84.52
57900;BME280;60605;53.716;19.940;2024-02-23T15:01:58;98903.98;;;10.58;84.53
57900;BME280;60605;53.716;19.940;2024-02-23T15:07:00;98910.28;;;10.44;84.03
57900;BME280;60605;53.716;19.940;2024-02-23T15:12:03;98914.12;;;10.31;84.29
57900;BME280;60605;53.716;19.940;2024-02-23T15:17:06;98923.22;;;10.18;84.76
57900;BME280;60605;53.716;19.940;2024-02-23T15:22:09;98924.23;;;10.05;85.15
57900;BME280;60605;53.716;19.940;2024-02-23T15:27:16;98921.53;;;9.93;85.58
57900;BME280;60605;53.716;19.940;2024-02-23T15:32:18;98919.45;;;9.82;86.02
57900;BME280;60605;53.716;19.940;2024-02-23T15:37:20;98919.83;;;9.70;86.60
57900;BME280;60605;53.716;19.940;2024-02-23T15:42:22;98926.73;;;9.60;87.04
57900;BME280;60605;53.716;19.940;2024-02-23T15:47:25;98931.75;;;9.51;87.53
57900;BME280;60605;53.716;19.940;2024-02-23T15:52:27;98927.36;;;9.41;87.94
57900;BME280;60605;53.716;19.940;2024-02-23T15:57:30;98931.51;;;9.32;88.36
57900;BME280;60605;53.716;19.940;2024-02-23T16:02:32;98933.58;;;9.22;88.83
57900;BME280;60605;53.716;19.940;2024-02-23T16:07:34;98932.95;;;9.12;89.41
57900;BME280;60605;53.716;19.940;2024-02-23T16:12:36;98927.00;;;9.03;89.88
57900;BME280;60605;53.716;19.940;2024-02-23T16:17:39;98939.63;;;8.99;90.15
57900;BME280;60605;53.716;19.940;2024-02-23T16:22:43;98943.15;;;8.93;90.54
57900;BME280;60605;53.716;19.940;2024-02-23T16:27:46;98952.14;;;8.86;90.87
57900;BME280;60605;53.716;19.940;2024-02-23T16:32:48;98956.75;;;8.77;91.29
57900;BME280;60605;53.716;19.940;2024-02-23T16:37:51;98965.24;;;8.70;91.63
57900;BME280;60605;53.716;19.940;2024-02-23T16:42:57;98977.92;;;8.62;91.88
57900;BME280;60605;53.716;19.940;2024-02-23T16:47:59;98994.23;;;8.49;92.50
57900;BME280;60605;53.716;19.940;2024-02-23T16:53:03;99010.89;;;8.33;93.06
57900;BME280;60605;53.716;19.940;2024-02-23T16:58:05;99021.79;;;8.15;93.85
57900;BME280;60605;53.716;19.940;2024-02-23T17:03:07;99030.16;;;7.99;94.52
57900;BME280;60605;53.716;19.940;2024-02-23T17:08:10;99039.48;;;7.83;95.29
57900;BME280;60605;53.716;19.940;2024-02-23T17:13:15;99046.79;;;7.69;96.18
57900;BME280;60605;53.716;19.940;2024-02-23T17:18:18;99048.80;;;7.57;96.93
57900;BME280;60605;53.716;19.940;2024-02-23T17:23:20;99057.48;;;7.45;97.82
57900;BME280;60605;53.716;19.940;2024-02-23T17:28:23;99064.32;;;7.35;98.54
57900;BME280;60605;53.716;19.940;2024-02-23T17:33:25;99067.48;;;7.25;99.12
57900;BME280;60605;53.716;19.940;2024-02-23T17:38:27;99069.58;;;7.15;99.78
57900;BME280;60605;53.716;19.940;2024-02-23T17:43:29;99074.89;;;7.07;100.00
57900;BME280;60605;53.716;19.940;2024-02-23T17:48:32;99078.58;;;6.99;100.00
57900;BME280;60605;53.716;19.940;2024-02-23T17:53:36;99083.45;;;6.91;100.00
57900;BME280;60605;53.716;19.940;2024-02-23T17:58:38;99083.34;;;6.85;100.00
57900;BME280;60605;53.716;19.940;2024-02-23T18:03:41;99084.40;;;6.84;100.00
57900;BME280;60605;53.716;19.940;2024-02-23T18:08:44;99078.96;;;6.83;100.00
57900;BME280;60605;53.716;19.940;2024-02-23T18:13:46;99082.20;;;6.85;100.00
57900;BME280;60605;53.716;19.940;2024-02-23T18:18:50;99079.02;;;6.88;100.00
57900;BME280;60605;53.716;19.940;2024-02-23T18:23:52;99077.71;;;6.90;100.00
57900;BME280;60605;53.716;19.940;2024-02-23T18:28:55;99067.70;;;6.89;100.00
57900;BME280;60605;53.716;19.940;2024-02-23T18:33:57;99063.68;;;6.87;100.00
57900;BME280;60605;53.716;19.940;2024-02-23T18:39:00;99061.02;;;6.84;100.00
57900;BME280;60605;53.716;19.940;2024-02-23T18:44:03;99061.31;;;6.79;100.00
57900;BME280;60605;53.716;19.940;2024-02-23T18:49:06;99065.98;;;6.72;100.00
57900;BME280;60605;53.716;19.940;2024-02-23T18:54:09;99067.83;;;6.63;100.00
57900;BME280;60605;53.716;19.940;2024-02-23T18:59:12;99069.44;;;6.49;100.00
57900;BME280;60605;53.716;19.940;2024-02-23T19:04:14;99070.63;;;6.34;100.00
57900;BME280;60605;53.716;19.940;2024-02-23T19:09:17;99075.55;;;6.19;100.00
57900;BME280;60605;53.716;19.940;2024-02-23T19:14:19;99074.11;;;6.07;100.00
57900;BME280;60605;53.716;19.940;2024-02-23T19:19:21;99077.98;;;5.93;100.00
57900;BME280;60605;53.716;19.940;2024-02-23T19:24:24;99086.05;;;5.80;100.00
57900;BME280;60605;53.716;19.940;2024-02-23T19:29:31;99089.81;;;5.71;100.00
57900;BME280;60605;53.716;19.940;2024-02-23T19:34:33;99090.29;;;5.66;100.00
57900;BME280;60605;53.716;19.940;2024-02-23T19:39:37;99092.90;;;5.65;100.00
57900;BME280;60605;53.716;19.940;2024-02-23T19:44:40;99091.44;;;5.65;100.00
57900;BME280;60605;53.716;19.940;2024-02-23T19:49:45;99088.93;;;5.67;100.00
57900;BME280;60605;53.716;19.940;2024-02-23T19:54:48;99085.16;;;5.73;100.00
57900;BME280;60605;53.716;19.940;2024-02-23T19:59:50;99079.75;;;5.83;100.00
57900;BME280;60605;53.716;19.940;2024-02-23T20:04:53;99084.02;;;5.95;100.00
57900;BME280;60605;53.716;19.940;2024-02-23T20:09:57;99081.03;;;6.05;100.00
57900;BME280;60605;53.716;19.940;2024-02-23T20:15:04;99083.59;;;6.13;100.00
57900;BME280;60605;53.716;19.940;2024-02-23T20:20:08;99086.14;;;6.19;100.00
57900;BME280;60605;53.716;19.940;2024-02-23T20:25:12;99094.83;;;6.26;100.00
57900;BME280;60605;53.716;19.940;2024-02-23T20:30:15;99105.42;;;6.32;100.00
57900;BME280;60605;53.716;19.940;2024-02-23T20:35:17;99116.27;;;6.37;100.00
57900;BME280;60605;53.716;19.940;2024-02-23T20:40:20;99120.67;;;6.42;100.00
57900;BME280;60605;53.716;19.940;2024-02-23T20:45:23;99119.30;;;6.49;100.00
57900;BME280;60605;53.716;19.940;2024-02-23T20:50:25;99118.35;;;6.58;100.00
57900;BME280;60605;53.716;19.940;2024-02-23T20:55:28;99127.52;;;6.67;100.00
57900;BME280;60605;53.716;19.940;2024-02-23T21:00:31;99131.05;;;6.74;100.00
57900;BME280;60605;53.716;19.940;2024-02-23T21:05:33;99129.54;;;6.78;100.00
57900;BME280;60605;53.716;19.940;2024-02-23T21:10:39;99130.77;;;6.80;100.00
57900;BME280;60605;53.716;19.940;2024-02-23T21:15:43;99139.13;;;6.80;100.00
57900;BME280;60605;53.716;19.940;2024-02-23T21:20:46;99141.73;;;6.79;100.00
57900;BME280;60605;53.716;19.940;2024-02-23T21:25:55;99136.49;;;6.76;100.00
57900;BME280;60605;53.716;19.940;2024-02-23T21:30:57;99133.84;;;6.74;100.00
57900;BME280;60605;53.716;19.940;2024-02-23T21:36:06;99134.14;;;6.73;100.00
57900;BME280;60605;53.716;19.940;2024-02-23T21:41:09;99135.25;;;6.76;100.00
57900;BME280;60605;53.716;19.940;2024-02-23T21:46:12;99129.08;;;6.84;100.00
57900;BME280;60605;53.716;19.940;2024-02-23T21:51:16;99130.30;;;6.93;100.00
57900;BME280;60605;53.716;19.940;2024-02-23T21:56:18;99134.30;;;6.99;100.00
57900;BME280;60605;53.716;19.940;2024-02-23T22:01:21;99135.52;;;7.04;100.00
57900;BME280;60605;53.716;19.940;2024-02-23T22:06:25;99135.41;;;7.09;100.00
57900;BME280;60605;53.716;19.940;2024-02-23T22:11:27;99135.10;;;7.15;100.00
57900;BME280;60605;53.716;19.940;2024-02-23T22:16:29;99133.55;;;7.25;100.00
57900;BME280;60605;53.716;19.940;2024-02-23T22:21:31;99129.42;;;7.35;100.00
57900;BME280;60605;53.716;19.940;2024-02-23T22:26:33;99129.09;;;7.47;100.00
57900;BME280;60605;53.716;19.940;2024-02-23T22:31:46;99132.27;;;7.54;100.00
57900;BME280;60605;53.716;19.940;2024-02-23T22:36:49;99128.45;;;7.55;100.00
57900;BME280;60605;53.716;19.940;2024-02-23T22:41:51;99126.05;;;7.52;100.00
57900;BME280;60605;53.716;19.940;2024-02-23T22:46:53;99128.08;;;7.48;100.00
57900;BME280;60605;53.716;19.940;2024-02-23T22:51:57;99127.06;;;7.43;100.00
57900;BME280;60605;53.716;19.940;2024-02-23T22:56:59;99130.06;;;7.36;100.00
57900;BME280;60605;53.716;19.940;2024-02-23T23:02:02;99135.38;;;7.28;100.00
57900;BME280;60605;53.716;19.940;2024-02-23T23:07:04;99125.80;;;7.19;100.00
57900;BME280;60605;53.716;19.940;2024-02-23T23:12:07;99126.56;;;7.13;100.00
57900;BME280;60605;53.716;19.940;2024-02-23T23:17:09;99129.23;;;7.10;100.00
57900;BME280;60605;53.716;19.940;2024-02-23T23:22:11;99132.17;;;7.06;100.00
57900;BME280;60605;53.716;19.940;2024-02-23T23:27:13;99130.91;;;7.02;100.00
57900;BME280;60605;53.716;19.940;2024-02-23T23:32:15;99132.86;;;6.99;100.00
57900;BME280;60605;53.716;19.940;2024-02-23T23:37:18;99127.33;;;6.96;100.00
57900;BME280;60605;53.716;19.940;2024-02-23T23:42:20;99124.48;;;6.93;100.00
57900;BME280;60605;53.716;19.940;2024-02-23T23:47:22;99123.55;;;6.88;100.00
57900;BME280;60605;53.716;19.940;2024-02-23T23:52:25;99126.45;;;6.81;100.00
57900;BME280;60605;53.716;19.940;2024-02-23T23:57:29;99112.89;;;6.75;100.00
